Time;durP1;ratioP1;P1;durP2;ratioP2;P2;SDS_P1;SDS_P2;PMS_P1;PMS_P2;Temp;Humidity;BMP_temperature;BMP_pressure;BME280_temperature;BME280_humidity;BME280_pressure;Samples;Min_cycle;Max_cycle;Signal;HPM_P1;HPM_P2
2023/12/24 00:00:16;;;;;;;3.60;1.05;;;;;;;21.49;42.50;100756.59;4936347;28;98010;-71
2023/12/24 00:02:42;;;;;;;2.75;0.80;;;;;;;21.48;42.53;100745.13;4924875;28;97359;-71
2023/12/24 00:05:08;;;;;;;2.20;0.93;;;;;;;21.48;42.58;100739.81;4926128;28;97201;-71
2023/12/24 00:07:33;;;;;;;2.33;0.82;;;;;;;21.49;42.78;100749.50;4936232;28;96664;-71
2023/12/24 00:09:58;;;;;;;1.73;0.90;;;;;;;21.48;42.64;100739.81;4928724;28;97717;-71
2023/12/24 00:12:24;;;;;;;2.70;0.88;;;;;;;21.51;42.46;100744.13;4928240;28;97581;-71
2023/12/24 00:14:50;;;;;;;2.30;0.90;;;;;;;21.51;42.53;100743.28;4933747;28;97193;-71
2023/12/24 00:17:16;;;;;;;1.80;0.93;;;;;;;21.51;42.44;100749.44;4933720;28;97460;-72
2023/12/24 00:19:41;;;;;;;1.50;0.77;;;;;;;21.51;42.47;100753.91;4932216;28;97281;-72
2023/12/24 00:22:07;;;;;;;2.45;0.80;;;;;;;21.49;42.54;100762.75;4936322;28;97398;-72
2023/12/24 00:24:32;;;;;;;1.98;0.68;;;;;;;21.51;42.53;100761.84;4931414;28;97439;-72
2023/12/24 00:26:58;;;;;;;1.40;0.80;;;;;;;21.50;42.59;100758.34;4935450;28;97240;-72
2023/12/24 00:29:24;;;;;;;3.47;1.00;;;;;;;21.47;42.34;100754.00;4934244;28;96946;-72
2023/12/24 00:31:49;;;;;;;3.10;0.73;;;;;;;21.49;42.58;100757.47;4933654;28;97532;-72
2023/12/24 00:34:15;;;;;;;1.83;0.60;;;;;;;21.51;42.44;100753.91;4935170;28;97386;-73
2023/12/24 00:36:40;;;;;;;2.65;0.90;;;;;;;21.49;42.73;100741.53;4935865;28;97227;-73
2023/12/24 00:39:06;;;;;;;3.05;0.82;;;;;;;21.53;42.79;100736.13;4933280;28;97015;-72
2023/12/24 00:41:31;;;;;;;2.35;0.73;;;;;;;21.50;42.57;100737.13;4934476;28;98703;-73
2023/12/24 00:43:57;;;;;;;1.77;0.70;;;;;;;21.52;42.50;100723.81;4935860;28;98679;-73
2023/12/24 00:46:22;;;;;;;1.45;0.70;;;;;;;21.52;42.61;100719.34;4930300;28;97538;-73
2023/12/24 00:48:48;;;;;;;1.77;0.80;;;;;;;21.52;42.66;100700.78;4933290;28;97017;-73
2023/12/24 00:51:13;;;;;;;2.22;0.80;;;;;;;21.52;42.48;100695.47;4934505;28;97499;-73
2023/12/24 00:53:39;;;;;;;2.13;0.80;;;;;;;21.54;42.43;100684.81;4934301;28;100088;-73
2023/12/24 00:56:04;;;;;;;1.63;0.75;;;;;;;21.54;42.54;100679.50;4931477;28;96864;-72
2023/12/24 00:58:30;;;;;;;2.38;0.80;;;;;;;21.54;42.62;100658.25;4935812;28;97135;-73
2023/12/24 01:00:55;;;;;;;2.63;0.80;;;;;;;21.54;42.54;100656.47;4933671;28;100904;-72
2023/12/24 01:03:21;;;;;;;1.23;0.63;;;;;;;21.53;42.58;100652.06;4925806;28;98669;-72
2023/12/24 01:05:47;;;;;;;2.40;0.82;;;;;;;21.55;42.68;100644.94;4932818;28;96697;-73
2023/12/24 01:08:13;;;;;;;1.63;0.70;;;;;;;21.53;42.64;100625.53;4934148;28;96807;-72
2023/12/24 01:10:38;;;;;;;3.65;0.90;;;;;;;21.56;42.58;100619.25;4933597;28;98725;-73
2023/12/24 01:13:04;;;;;;;1.95;0.73;;;;;;;21.55;42.41;100615.75;4932776;28;97121;-73
2023/12/24 01:15:29;;;;;;;1.10;0.40;;;;;;;21.54;42.46;100619.31;4936349;28;97104;-73
2023/12/24 01:17:55;;;;;;;1.83;0.80;;;;;;;21.55;42.41;100610.44;4933597;28;97421;-73
2023/12/24 01:20:21;;;;;;;1.67;0.70;;;;;;;21.56;42.55;100616.63;4935860;28;97989;-72
2023/12/24 01:22:48;;;;;;;1.60;0.75;;;;;;;21.56;42.40;100624.56;4931121;28;97932;-71
2023/12/24 01:25:14;;;;;;;1.50;0.70;;;;;;;21.56;42.57;100621.91;4933450;28;96715;-72
2023/12/24 01:27:39;;;;;;;1.73;0.70;;;;;;;21.56;42.47;100625.44;4934324;28;96771;-73
2023/12/24 01:30:08;;;;;;;1.95;0.63;;;;;;;21.57;42.62;100619.22;4920856;28;97783;-73
2023/12/24 01:32:34;;;;;;;2.38;0.90;;;;;;;21.57;42.46;100613.00;4928241;28;98941;-72
2023/12/24 01:35:00;;;;;;;1.83;0.70;;;;;;;21.59;42.44;100624.47;4941514;28;97354;-72
2023/12/24 01:37:25;;;;;;;3.08;0.60;;;;;;;21.57;42.74;100623.63;4957262;28;96855;-73
2023/12/24 01:39:51;;;;;;;2.35;0.70;;;;;;;21.58;42.50;100630.69;4940393;28;100378;-72
2023/12/24 01:42:18;;;;;;;1.92;0.80;;;;;;;21.58;42.30;100622.72;4939658;28;98384;-72
2023/12/24 01:44:43;;;;;;;1.55;0.65;;;;;;;21.58;42.66;100625.38;4934949;28;96757;-72
2023/12/24 01:47:09;;;;;;;1.30;0.60;;;;;;;21.59;42.62;100629.78;4925713;28;97335;-72
2023/12/24 01:49:35;;;;;;;5.65;0.70;;;;;;;21.59;42.49;100640.41;4934599;28;100574;-72
2023/12/24 01:52:02;;;;;;;2.58;0.70;;;;;;;21.59;42.36;100629.78;4935195;28;98582;-72
2023/12/24 01:54:31;;;;;;;2.25;0.70;;;;;;;21.59;42.29;100635.09;4941002;28;97057;-72
2023/12/24 01:56:56;;;;;;;2.50;0.60;;;;;;;21.58;42.34;100638.66;4930863;28;96908;-72
2023/12/24 01:59:23;;;;;;;1.40;0.68;;;;;;;21.59;42.54;100635.09;4925012;28;100814;-72
2023/12/24 02:01:48;;;;;;;1.88;0.60;;;;;;;21.60;42.55;100639.44;4929922;28;100357;-72
2023/12/24 02:04:16;;;;;;;2.53;0.80;;;;;;;21.60;42.25;100636.78;4928814;28;97664;-71
2023/12/24 02:06:43;;;;;;;1.20;0.63;;;;;;;21.60;42.65;100626.19;4935562;28;96845;-71
2023/12/24 02:09:08;;;;;;;1.67;0.82;;;;;;;21.58;42.22;100623.56;4933934;28;100152;-71
2023/12/24 02:11:34;;;;;;;1.38;0.50;;;;;;;21.58;42.62;100631.53;4927419;28;97436;-71
2023/12/24 02:13:59;;;;;;;1.38;0.50;;;;;;;21.59;42.60;100633.28;4925148;28;96929;-71
2023/12/24 02:16:31;;;;;;;1.48;0.73;;;;;;;21.61;42.58;100625.28;4927126;28;97383;-70
2023/12/24 02:18:56;;;;;;;1.83;0.80;;;;;;;21.60;42.48;100621.72;4930600;28;97778;-71
2023/12/24 02:21:22;;;;;;;1.75;0.60;;;;;;;21.59;42.48;100622.66;4944527;28;100103;-71
2023/12/24 02:23:47;;;;;;;2.15;0.65;;;;;;;21.59;42.49;100617.38;4928421;28;96760;-71
2023/12/24 02:26:28;;;;;;;1.80;1.10;;;;;;;21.59;42.36;100611.19;4913744;28;96812;-71
2023/12/24 02:29:05;;;;;;;2.78;0.82;;;;;;;21.60;42.53;100604.94;4932898;28;97703;-71
2023/12/24 02:31:34;;;;;;;1.17;0.60;;;;;;;21.59;42.73;100597.94;4934697;28;97364;-71
2023/12/24 02:34:02;;;;;;;2.00;0.63;;;;;;;21.60;42.77;100595.19;4929638;28;97520;-71
2023/12/24 02:36:29;;;;;;;;;;;;;;;21.59;42.48;100598.78;4952683;28;97049;-71
2023/12/24 02:38:56;;;;;;;1.42;0.70;;;;;;;21.60;42.61;100589.88;4930622;28;99098;-71
2023/12/24 02:41:22;;;;;;;2.35;0.93;;;;;;;21.59;42.74;100593.47;4934756;28;97502;-71
2023/12/24 02:43:47;;;;;;;1.67;0.73;;;;;;;21.60;42.48;100589.03;4930361;28;96820;-71
2023/12/24 02:46:14;;;;;;;1.90;0.57;;;;;;;21.61;42.58;100585.47;4933481;28;96882;-71
2023/12/24 02:48:39;;;;;;;1.45;0.50;;;;;;;21.61;42.28;100577.50;4931743;28;97342;-71
2023/12/24 02:51:05;;;;;;;1.13;0.50;;;;;;;21.59;42.69;100566.94;4918644;28;98857;-71
2023/12/24 02:53:30;;;;;;;2.00;0.63;;;;;;;21.61;42.41;100570.41;4933123;28;96900;-71
2023/12/24 02:55:56;;;;;;;1.67;0.70;;;;;;;21.62;42.77;100557.97;4935264;28;97023;-71
2023/12/24 02:58:23;;;;;;;1.60;0.73;;;;;;;21.61;42.96;100556.28;4935720;28;100348;-72
2023/12/24 03:00:48;;;;;;;1.85;0.52;;;;;;;21.59;42.81;100555.47;4937941;28;97434;-72
2023/12/24 03:03:14;;;;;;;0.77;0.60;;;;;;;21.61;42.48;100548.31;4936448;28;97879;-72
2023/12/24 03:05:39;;;;;;;0.98;0.60;;;;;;;21.61;42.34;100548.31;4935448;28;96786;-72
2023/12/24 03:08:05;;;;;;;1.13;0.43;;;;;;;21.61;42.80;100550.97;4917136;28;99184;-72
2023/12/24 03:10:30;;;;;;;3.05;0.60;;;;;;;21.61;42.81;100549.16;4932424;28;97632;-72
2023/12/24 03:12:56;;;;;;;2.15;0.60;;;;;;;21.62;42.43;100544.72;4932933;28;96817;-72
2023/12/24 03:15:21;;;;;;;1.50;0.47;;;;;;;21.61;42.51;100543.00;4936446;28;97113;-71
2023/12/24 03:17:48;;;;;;;1.27;0.50;;;;;;;21.62;42.58;100544.72;4927675;28;98729;-71
2023/12/24 03:20:14;;;;;;;1.17;0.73;;;;;;;21.63;42.75;100533.19;4929790;28;97492;-71
2023/12/24 03:22:39;;;;;;;1.42;0.40;;;;;;;21.62;42.59;100534.09;4930006;28;96820;-71
2023/12/24 03:25:06;;;;;;;1.48;0.50;;;;;;;21.63;42.56;100525.22;4937472;28;97390;-71
2023/12/24 03:27:31;;;;;;;2.38;0.40;;;;;;;21.63;42.83;100510.16;4935877;28;100724;-72
2023/12/24 03:29:57;;;;;;;1.27;0.43;;;;;;;21.63;42.76;100514.59;4937914;28;97301;-72
2023/12/24 03:32:23;;;;;;;1.15;0.50;;;;;;;21.64;42.47;100508.34;4935518;28;97151;-72
2023/12/24 03:34:48;;;;;;;0.80;0.40;;;;;;;21.64;42.57;100516.31;4935877;28;97027;-72
2023/12/24 03:37:14;;;;;;;2.08;0.60;;;;;;;21.65;42.68;100515.41;4935048;28;98236;-72
2023/12/24 03:39:39;;;;;;;1.45;0.50;;;;;;;21.64;42.71;100511.00;4937731;28;97589;-73
2023/12/24 03:42:05;;;;;;;1.45;0.60;;;;;;;21.65;42.59;100512.75;4933666;28;96727;-73
2023/12/24 03:44:30;;;;;;;2.20;0.50;;;;;;;21.64;42.71;100509.25;4925631;28;96735;-73
2023/12/24 03:46:56;;;;;;;1.25;0.40;;;;;;;21.64;42.57;100513.66;4928479;28;100575;-73
2023/12/24 03:49:21;;;;;;;1.73;0.47;;;;;;;21.64;42.79;100498.63;4925372;28;98978;-73
2023/12/24 03:51:48;;;;;;;3.22;0.50;;;;;;;21.66;42.70;100498.56;4927676;28;97448;-73
2023/12/24 03:54:13;;;;;;;1.38;0.55;;;;;;;21.66;42.41;100490.59;4928691;28;96817;-73
2023/12/24 03:56:41;;;;;;;1.45;0.40;;;;;;;21.65;42.52;100491.53;4936862;28;97356;-73
2023/12/24 03:59:06;;;;;;;1.00;0.45;;;;;;;21.66;42.58;100494.13;4937298;28;97213;-74
2023/12/24 04:01:31;;;;;;;1.83;0.65;;;;;;;21.65;42.97;100489.72;4937619;28;97284;-74
2023/12/24 04:03:57;;;;;;;2.20;0.60;;;;;;;21.66;42.37;100498.56;4937838;28;96861;-74
2023/12/24 04:06:22;;;;;;;1.95;0.45;;;;;;;21.66;42.70;100486.16;4936865;28;97839;-74
2023/12/24 04:08:48;;;;;;;1.38;0.52;;;;;;;21.66;42.64;100482.66;4937371;28;97392;-73
2023/12/24 04:11:17;;;;;;;1.30;0.43;;;;;;;21.66;42.82;100480.00;4936079;28;96756;-73
2023/12/24 04:13:43;;;;;;;0.82;0.43;;;;;;;21.66;42.95;100482.66;4920086;28;96803;-73
2023/12/24 04:16:09;;;;;;;0.77;0.40;;;;;;;21.66;42.57;100480.00;4931265;28;100627;-73
2023/12/24 04:18:36;;;;;;;0.65;0.32;;;;;;;21.66;42.56;100469.38;4935929;28;97461;-73
2023/12/24 04:21:02;;;;;;;0.80;0.52;;;;;;;21.66;42.78;100469.38;4934126;28;97111;-72
2023/12/24 04:23:27;;;;;;;0.82;0.40;;;;;;;21.64;42.84;100466.78;4933931;28;96869;-71
2023/12/24 04:25:54;;;;;;;0.88;0.38;;;;;;;21.66;42.65;100466.72;4935216;28;100482;-72
2023/12/24 04:28:20;;;;;;;1.27;0.40;;;;;;;21.65;42.62;100467.63;4934148;28;99640;-72
2023/12/24 04:30:45;;;;;;;0.95;0.50;;;;;;;21.65;42.68;100463.19;4935918;28;96935;-72
2023/12/24 04:33:11;;;;;;;1.00;0.43;;;;;;;21.66;42.85;100466.72;4934395;28;97470;-72
2023/12/24 04:35:37;;;;;;;1.10;0.50;;;;;;;21.65;42.63;100463.19;4935327;28;99118;-72
2023/12/24 04:38:03;;;;;;;1.38;0.40;;;;;;;21.66;42.90;100462.28;4937715;28;97191;-71
2023/12/24 04:40:29;;;;;;;0.85;0.30;;;;;;;21.65;43.02;100463.19;4935792;28;96863;-71
2023/12/24 04:42:54;;;;;;;1.65;0.65;;;;;;;21.66;42.92;100461.41;4934748;28;96852;-72
2023/12/24 04:45:20;;;;;;;1.02;0.60;;;;;;;21.66;42.89;100472.03;4935203;28;99675;-72
2023/12/24 04:47:46;;;;;;;0.50;0.40;;;;;;;21.66;42.65;100461.41;4934655;28;97730;-73
2023/12/24 04:50:12;;;;;;;1.15;0.40;;;;;;;21.65;42.78;100449.91;4927321;28;97024;-72
2023/12/24 04:52:38;;;;;;;0.63;0.40;;;;;;;21.65;43.04;100451.72;4918616;28;96873;-72
2023/12/24 04:55:05;;;;;;;1.02;0.40;;;;;;;21.65;42.77;100444.59;4935219;28;97346;-72
2023/12/24 04:57:31;;;;;;;0.90;0.40;;;;;;;21.66;42.56;100456.97;4934541;28;99485;-73
2023/12/24 04:59:57;;;;;;;0.85;0.40;;;;;;;21.67;42.81;100460.47;4935053;28;96906;-73
2023/12/24 05:02:23;;;;;;;0.90;0.43;;;;;;;21.66;42.77;100459.63;4935442;28;96889;-73
2023/12/24 05:04:49;;;;;;;1.60;0.30;;;;;;;21.67;42.84;100445.44;4935187;28;100814;-71
2023/12/24 05:07:16;;;;;;;0.98;0.43;;;;;;;21.66;42.65;100442.84;4936427;28;98335;-71
2023/12/24 05:09:42;;;;;;;0.88;0.32;;;;;;;21.67;42.89;100444.53;4924550;28;97109;-71
2023/12/24 05:12:08;;;;;;;1.08;0.55;;;;;;;21.67;42.82;100440.13;4934618;28;97332;-71
2023/12/24 05:14:34;;;;;;;0.98;0.30;;;;;;;21.67;43.10;100440.13;4927355;28;97599;-71
2023/12/24 05:17:02;;;;;;;1.30;0.52;;;;;;;21.67;43.07;100440.13;4932155;28;100049;-71
2023/12/24 05:19:27;;;;;;;1.60;0.30;;;;;;;21.69;42.99;100437.38;4956461;28;97033;-71
2023/12/24 05:21:53;;;;;;;0.50;0.40;;;;;;;21.68;42.75;100438.31;4933025;28;96845;-71
2023/12/24 05:24:18;;;;;;;1.98;0.70;;;;;;;21.68;42.89;100433.88;4933103;28;100289;-71
2023/12/24 05:26:44;;;;;;;0.80;0.30;;;;;;;21.69;42.81;100434.72;4932723;28;97569;-71
2023/12/24 05:29:09;;;;;;;1.50;1.38;;;;;;;21.67;43.15;100429.50;4936686;28;97223;-71
2023/12/24 05:31:39;;;;;;;1.70;1.08;;;;;;;21.67;42.82;100429.50;4924746;28;97066;-71
2023/12/24 05:34:05;;;;;;;0.60;0.47;;;;;;;21.67;43.02;100436.59;4933922;28;97972;-72
2023/12/24 05:36:32;;;;;;;0.82;0.30;;;;;;;21.67;42.93;100439.25;4926120;28;97287;-72
2023/12/24 05:38:59;;;;;;;0.65;0.30;;;;;;;21.66;42.84;100438.38;4922367;28;96744;-72
2023/12/24 05:41:24;;;;;;;1.20;0.50;;;;;;;21.67;43.21;100448.09;4929064;28;97254;-72
2023/12/24 05:43:50;;;;;;;1.85;1.10;;;;;;;21.68;42.81;100435.66;4930382;28;97696;-73
2023/12/24 05:46:16;;;;;;;1.65;0.30;;;;;;;21.68;43.02;100436.53;4928722;28;97231;-73
2023/12/24 05:48:42;;;;;;;0.57;0.25;;;;;;;21.67;42.86;100432.16;4936547;28;96880;-72
2023/12/24 05:51:08;;;;;;;1.63;0.30;;;;;;;21.67;43.19;100431.28;4936626;28;97181;-72
2023/12/24 05:53:33;;;;;;;0.40;0.30;;;;;;;21.67;42.87;100420.66;4934497;28;97776;-72
2023/12/24 05:55:59;;;;;;;0.50;0.30;;;;;;;21.69;42.84;100426.75;4967009;28;98869;-72
2023/12/24 05:58:25;;;;;;;0.90;0.32;;;;;;;21.69;43.02;100424.09;4934188;28;96829;-73
2023/12/24 06:00:54;;;;;;;1.35;0.40;;;;;;;21.67;42.91;100420.66;4932201;28;96770;-73
2023/12/24 06:03:21;;;;;;;1.15;1.00;;;;;;;21.67;42.88;100425.97;4934154;28;97526;-73
2023/12/24 06:05:47;;;;;;;0.82;0.40;;;;;;;21.69;43.08;100429.41;4935011;28;97351;-72
2023/12/24 06:08:17;;;;;;;1.13;1.00;;;;;;;21.72;42.96;100431.97;4933627;28;96880;-73
2023/12/24 06:10:43;;;;;;;0.50;0.47;;;;;;;21.75;43.09;100433.66;4932304;28;97817;-73
2023/12/24 06:13:09;;;;;;;1.23;0.82;;;;;;;21.76;43.05;100430.03;4932542;28;97585;-72
2023/12/24 06:15:35;;;;;;;0.63;0.30;;;;;;;21.77;43.11;100429.97;4926029;28;97334;-75
2023/12/24 06:18:01;;;;;;;0.68;0.32;;;;;;;21.80;43.09;100428.97;4931788;28;97256;-74
2023/12/24 06:20:29;;;;;;;0.45;0.40;;;;;;;21.81;42.88;100422.75;4935488;28;96765;-74
2023/12/24 06:22:55;;;;;;;0.63;0.52;;;;;;;21.82;42.94;100432.47;4935061;28;98016;-77
2023/12/24 06:25:21;;;;;;;2.67;0.98;;;;;;;21.79;43.03;100417.50;4936064;28;97174;-73
2023/12/24 06:27:47;;;;;;;0.52;0.30;;;;;;;21.82;42.72;100416.53;4929709;28;96868;-73
2023/12/24 06:30:14;;;;;;;0.60;0.30;;;;;;;21.84;43.02;100414.69;4930271;28;96623;-73
2023/12/24 06:32:41;;;;;;;0.50;0.30;;;;;;;21.85;43.20;100422.59;4931904;28;100531;-72
2023/12/24 06:35:08;;;;;;;0.68;0.40;;;;;;;21.86;43.15;100411.03;4935650;28;97296;-72
2023/12/24 06:37:33;;;;;;;1.10;1.00;;;;;;;21.85;43.16;100413.72;4935569;28;96725;-72
2023/12/24 06:39:59;;;;;;;0.50;0.40;;;;;;;21.88;43.13;100410.09;4936426;28;96724;-72
2023/12/24 06:42:24;;;;;;;0.75;0.30;;;;;;;21.90;43.46;100405.59;4933940;28;97389;-75
2023/12/24 06:44:50;;;;;;;0.25;0.22;;;;;;;21.91;43.27;100404.66;4936194;28;97342;-72
2023/12/24 06:47:16;;;;;;;0.70;0.40;;;;;;;21.94;43.22;100401.88;4935104;28;97013;-71
2023/12/24 06:49:44;;;;;;;0.70;0.20;;;;;;;21.92;43.67;100409.03;4935716;28;96733;-72
2023/12/24 06:52:10;;;;;;;0.82;0.80;;;;;;;21.92;42.55;100403.72;4923213;28;97603;-72
2023/12/24 06:54:36;;;;;;;0.40;0.20;;;;;;;21.87;42.66;100406.56;4935354;28;97780;-72
2023/12/24 06:57:02;;;;;;;3.35;0.30;;;;;;;21.85;42.61;100406.66;4935904;28;97085;-72
2023/12/24 06:59:28;;;;;;;1.67;0.50;;;;;;;21.84;42.41;100412.03;4935459;28;96807;-72
2023/12/24 07:01:53;;;;;;;2.47;0.88;;;;;;;21.82;42.91;100412.09;4935119;28;97373;-73
2023/12/24 07:04:19;;;;;;;2.25;0.85;;;;;;;21.85;43.14;100406.66;4935202;28;97677;-72
2023/12/24 07:06:44;;;;;;;1.23;0.35;;;;;;;21.89;43.12;100404.75;4931225;28;98838;-70
2023/12/24 07:09:10;;;;;;;0.90;0.43;;;;;;;21.90;43.24;100409.09;4929226;28;97626;-70
2023/12/24 07:11:36;;;;;;;2.83;0.63;;;;;;;21.88;42.85;100412.75;4926778;28;100561;-70
2023/12/24 07:14:02;;;;;;;0.75;0.30;;;;;;;21.83;43.53;100410.28;4928096;28;97352;-73
2023/12/24 07:16:27;;;;;;;0.63;0.30;;;;;;;21.89;43.29;100409.16;4934751;28;97112;-71
2023/12/24 07:18:53;;;;;;;0.85;0.80;;;;;;;21.92;43.09;100409.03;4953074;28;96800;-72
2023/12/24 07:21:18;;;;;;;0.47;0.32;;;;;;;21.92;43.07;100407.25;4934287;28;97527;-71
2023/12/24 07:23:43;;;;;;;2.38;0.30;;;;;;;21.94;43.15;100415.16;4934759;28;97295;-72
2023/12/24 07:26:09;;;;;;;1.08;0.65;;;;;;;21.95;42.98;100414.22;4934787;28;97271;-72
2023/12/24 07:28:35;;;;;;;0.70;0.32;;;;;;;21.95;43.13;100415.09;4924809;28;96756;-73
2023/12/24 07:31:00;;;;;;;1.25;0.85;;;;;;;21.93;43.03;100408.97;4930332;28;97415;-72
2023/12/24 07:33:25;;;;;;;0.75;0.30;;;;;;;21.92;43.38;100404.59;4930738;28;105704;-72
2023/12/24 07:35:51;;;;;;;1.40;0.20;;;;;;;21.92;43.47;100399.28;4929901;28;97009;-72
2023/12/24 07:38:18;;;;;;;0.52;0.40;;;;;;;21.93;43.36;100401.00;4936447;28;97223;-74
2023/12/24 07:40:43;;;;;;;1.13;0.30;;;;;;;21.93;43.30;100401.00;4930709;28;97419;-73
2023/12/24 07:43:10;;;;;;;0.40;0.20;;;;;;;21.93;43.50;100402.81;4921484;28;98952;-73
2023/12/24 07:45:35;;;;;;;0.75;0.30;;;;;;;21.93;43.40;100403.66;4935514;28;96702;-73
2023/12/24 07:48:01;;;;;;;1.50;1.10;;;;;;;21.91;43.22;100404.66;4930809;28;96909;-73
2023/12/24 07:50:26;;;;;;;0.60;0.20;;;;;;;21.91;43.03;100409.97;4931243;28;97584;-73
2023/12/24 07:52:54;;;;;;;3.83;0.50;;;;;;;21.90;43.29;100409.09;4920009;28;103519;-76
2023/12/24 07:55:19;;;;;;;2.95;0.65;;;;;;;21.91;43.00;100412.59;4938089;28;96900;-78
2023/12/24 07:57:45;;;;;;;1.95;0.30;;;;;;;21.90;42.96;100409.09;4938170;28;96824;-75
2023/12/24 08:00:12;;;;;;;2.05;0.40;;;;;;;21.89;43.18;100412.69;4937345;28;97411;-75
2023/12/24 08:02:40;;;;;;;1.63;0.43;;;;;;;21.91;43.13;100402.00;4937194;28;98557;-75
2023/12/24 08:05:07;;;;;;;1.35;0.30;;;;;;;21.88;43.00;100404.78;4938339;28;97026;-75
2023/12/24 08:07:33;;;;;;;2.35;0.93;;;;;;;21.87;43.30;100395.94;4936273;28;97090;-75
2023/12/24 08:10:00;;;;;;;3.30;0.30;;;;;;;21.87;43.23;100385.31;4925439;28;97689;-75
2023/12/24 08:12:26;;;;;;;0.75;0.70;;;;;;;21.87;42.99;100385.31;4925281;28;97205;-75
2023/12/24 08:14:51;;;;;;;1.25;0.32;;;;;;;21.86;43.44;100387.13;4926144;28;96802;-76
2023/12/24 08:17:17;;;;;;;1.00;0.30;;;;;;;21.85;43.45;100392.50;4928372;28;96867;-76
2023/12/24 08:19:42;;;;;;;1.08;0.35;;;;;;;21.85;43.46;100401.34;4938587;28;97422;-75
2023/12/24 08:22:08;;;;;;;0.52;0.52;;;;;;;21.84;43.27;100407.56;4936191;28;97271;-76
2023/12/24 08:24:34;;;;;;;1.10;0.32;;;;;;;21.85;43.36;100404.00;4926438;28;96812;-76
2023/12/24 08:26:59;;;;;;;1.95;0.90;;;;;;;21.85;43.01;100398.69;4936597;28;96840;-76
2023/12/24 08:29:26;;;;;;;3.65;0.30;;;;;;;21.86;42.99;100389.78;4938312;28;97381;-76
2023/12/24 08:31:55;;;;;;;0.95;0.35;;;;;;;21.86;43.27;100381.81;4924578;28;97321;-75
2023/12/24 08:34:21;;;;;;;1.42;1.13;;;;;;;21.88;43.06;100383.56;4926225;28;96740;-76
2023/12/24 08:36:46;;;;;;;0.40;0.13;;;;;;;21.89;43.09;100383.50;4938101;28;97154;-76
2023/12/24 08:39:13;;;;;;;1.38;0.50;;;;;;;21.89;42.96;100388.81;4937671;28;97655;-76
2023/12/24 08:41:39;;;;;;;2.92;0.63;;;;;;;21.89;43.07;100380.84;4937815;28;96787;-76
2023/12/24 08:44:05;;;;;;;1.83;0.30;;;;;;;21.92;43.10;100382.50;4937952;28;96657;-76
2023/12/24 08:46:30;;;;;;;1.20;0.30;;;;;;;21.91;42.96;100383.41;4937800;28;96851;-75
2023/12/24 08:48:55;;;;;;;2.85;0.30;;;;;;;21.92;42.93;100393.13;4931204;28;97428;-75
2023/12/24 08:51:21;;;;;;;2.30;0.20;;;;;;;21.92;43.29;100383.34;4933029;28;97093;-75
2023/12/24 08:53:46;;;;;;;0.95;0.30;;;;;;;21.92;42.97;100387.81;4937762;28;96672;-75
2023/12/24 08:56:13;;;;;;;0.50;0.20;;;;;;;21.92;43.27;100387.81;4937833;28;96661;-75
2023/12/24 08:58:38;;;;;;;1.73;0.38;;;;;;;21.92;43.01;100382.50;4937129;28;97520;-73
2023/12/24 09:01:04;;;;;;;1.38;0.30;;;;;;;21.92;42.94;100385.16;4936965;28;97666;-73
2023/12/24 09:03:29;;;;;;;1.38;0.22;;;;;;;21.92;43.27;100386.00;4937268;28;96799;-73
2023/12/24 09:05:55;;;;;;;0.47;0.20;;;;;;;21.91;43.37;100386.06;4937026;28;97244;-73
2023/12/24 09:08:22;;;;;;;0.25;0.25;;;;;;;21.92;43.32;100406.38;4937288;28;97943;-73
2023/12/24 09:10:47;;;;;;;0.30;0.30;;;;;;;21.91;43.03;100402.88;4934990;28;97340;-73
2023/12/24 09:13:13;;;;;;;3.65;0.93;;;;;;;21.92;43.23;100403.72;4925092;28;97039;-73
2023/12/24 09:15:38;;;;;;;0.75;0.35;;;;;;;21.93;43.17;100408.13;4929323;28;97841;-73
2023/12/24 09:18:04;;;;;;;0.77;0.52;;;;;;;21.91;43.23;100409.97;4935152;28;97356;-73
2023/12/24 09:20:29;;;;;;;2.10;0.47;;;;;;;21.92;43.34;100409.03;4936343;28;97209;-72
2023/12/24 09:22:55;;;;;;;2.13;1.05;;;;;;;21.91;43.33;100407.28;4927952;28;96982;-73
2023/12/24 09:25:21;;;;;;;0.55;0.22;;;;;;;21.93;43.23;100410.78;4934110;28;96868;-73
2023/12/24 09:27:46;;;;;;;0.57;0.20;;;;;;;21.92;43.19;100407.25;4936809;28;97719;-73
2023/12/24 09:30:12;;;;;;;0.98;0.35;;;;;;;21.92;43.21;100399.28;4936885;28;97246;-73
2023/12/24 09:32:37;;;;;;;0.85;0.20;;;;;;;21.93;43.12;100398.34;4934765;28;96911;-73
2023/12/24 09:35:04;;;;;;;1.02;0.77;;;;;;;21.93;43.23;100389.53;4924169;28;96980;-73
2023/12/24 09:37:31;;;;;;;1.17;0.40;;;;;;;21.95;43.01;100393.84;4916596;28;97455;-74
2023/12/24 09:39:56;;;;;;;1.20;0.98;;;;;;;21.96;43.15;100392.03;4917291;28;97089;-74
2023/12/24 09:42:22;;;;;;;1.50;0.88;;;;;;;21.95;43.15;100379.72;4934135;28;97840;-74
2023/12/24 09:44:48;;;;;;;0.38;0.20;;;;;;;21.95;43.29;100377.91;4936222;28;96736;-74
2023/12/24 09:47:13;;;;;;;0.60;0.43;;;;;;;21.96;43.14;100379.66;4935593;28;97425;-76
2023/12/24 09:49:40;;;;;;;0.50;0.50;;;;;;;21.95;43.42;100380.56;4928022;28;106229;-74
2023/12/24 09:52:06;;;;;;;1.02;0.43;;;;;;;21.95;43.25;100382.38;4935712;28;96772;-73
2023/12/24 09:54:31;;;;;;;0.28;0.17;;;;;;;21.95;43.53;100388.53;4928590;28;97540;-73
2023/12/24 09:57:09;;;;;;;1.58;0.32;;;;;;;21.91;43.25;100388.72;4933031;28;97426;-78
2023/12/24 09:59:35;;;;;;;2.53;0.55;;;;;;;21.89;43.87;100385.25;4930956;28;97463;-74
2023/12/24 10:02:00;;;;;;;1.10;0.32;;;;;;;21.91;43.56;100378.09;4931167;28;96788;-74
2023/12/24 10:04:26;;;;;;;1.15;0.60;;;;;;;21.92;43.71;100383.34;4936077;28;97374;-74
2023/12/24 10:06:54;;;;;;;1.30;0.45;;;;;;;21.95;43.50;100377.91;4926622;28;97639;-74
2023/12/24 10:09:21;;;;;;;2.90;0.30;;;;;;;21.94;43.78;100373.53;4931292;28;97500;-72
2023/12/24 10:12:04;;;;;;;0.68;0.30;;;;;;;21.87;44.01;100385.31;4934155;28;97701;-72
2023/12/24 10:14:30;;;;;;;4.13;0.50;;;;;;;21.88;43.66;100380.91;4931607;28;97013;-73
2023/12/24 10:16:55;;;;;;;1.60;0.80;;;;;;;21.90;44.10;100384.34;4923859;28;98494;-73
2023/12/24 10:19:25;;;;;;;7.53;1.10;;;;;;;21.90;44.06;100394.97;4926470;28;97353;-73
2023/12/24 10:22:05;;;;;;;2.67;0.80;;;;;;;21.90;43.92;100387.00;4929819;28;97039;-73
2023/12/24 10:24:43;;;;;;;1.27;0.30;;;;;;;21.89;44.00;100367.56;4953087;28;96788;-73
2023/12/24 10:27:10;;;;;;;1.15;0.50;;;;;;;21.90;43.74;100374.59;4921700;28;97477;-73
2023/12/24 10:29:39;;;;;;;1.25;0.95;;;;;;;21.90;44.12;100374.59;4930076;28;97511;-73
2023/12/24 10:32:05;;;;;;;1.00;0.30;;;;;;;21.90;44.16;100382.56;4933600;28;96690;-73
2023/12/24 10:34:33;;;;;;;2.10;1.08;;;;;;;21.90;43.86;100387.84;4932905;28;96754;-73
2023/12/24 10:37:16;;;;;;;1.08;0.75;;;;;;;21.89;44.05;100382.59;4928351;28;97707;-73
2023/12/24 10:39:42;;;;;;;1.05;0.30;;;;;;;21.88;43.90;100375.59;4935981;28;97274;-73
2023/12/24 10:42:07;;;;;;;3.00;1.25;;;;;;;21.86;44.00;100381.81;4926521;28;97388;-73
2023/12/24 10:44:33;;;;;;;1.60;0.90;;;;;;;21.86;44.12;100379.16;4927840;28;96900;-73
2023/12/24 10:46:59;;;;;;;1.58;1.20;;;;;;;21.86;44.18;100376.50;4932666;28;97583;-73
2023/12/24 10:49:24;;;;;;;2.42;0.40;;;;;;;21.85;44.23;100377.44;4935569;28;97332;-73
2023/12/24 10:51:50;;;;;;;3.65;0.30;;;;;;;21.85;44.05;100364.19;4944819;28;97305;-73
2023/12/24 10:54:16;;;;;;;2.00;0.30;;;;;;;21.84;44.11;100359.78;4935571;28;97031;-72
2023/12/24 10:57:10;;;;;;;1.52;0.82;;;;;;;21.83;44.20;100355.38;4928745;28;97648;-72
2023/12/24 11:00:12;;;;;;;1.98;0.82;;;;;;;21.84;44.04;100361.59;4927979;28;100198;-72
2023/12/24 11:02:42;;;;;;;2.10;1.05;;;;;;;21.83;44.19;100365.16;4930660;28;97204;-73
2023/12/24 11:05:08;;;;;;;1.20;1.00;;;;;;;21.82;44.24;100356.34;4931971;28;98739;-73
2023/12/24 11:07:33;;;;;;;2.90;0.75;;;;;;;21.81;44.19;100351.94;4928967;28;97503;-73
2023/12/24 11:10:06;;;;;;;2.22;0.80;;;;;;;21.81;44.34;100343.13;4938837;28;97245;-72
2023/12/24 11:12:33;;;;;;;1.25;0.50;;;;;;;21.80;44.35;100338.72;4966253;28;97102;-73
2023/12/24 11:15:00;;;;;;;1.05;0.30;;;;;;;21.79;44.37;100343.19;4937312;28;97172;-72
2023/12/24 11:17:38;;;;;;;0.95;0.40;;;;;;;21.78;44.30;100327.31;4932411;28;98852;-72
2023/12/24 11:20:26;;;;;;;1.08;0.38;;;;;;;21.77;44.27;100328.25;4934586;28;97159;-72